Time;durP1;ratioP1;P1;durP2;ratioP2;P2;SDS_P1;SDS_P2;PMS_P1;PMS_P2;Temp;Humidity;BMP_temperature;BMP_pressure;BME280_temperature;BME280_humidity;BME280_pressure;Samples;Min_cycle;Max_cycle;Signal;HPM_P1;HPM_P2
2023/05/21 00:06:03;;;;;;;;;;;;;;;12.73;100.00;97307.62;18561476;32;19957;-58
2023/05/21 00:16:06;;;;;;;;;;;;;;;12.73;100.00;97300.31;18561364;32;20033;-58
2023/05/21 00:26:08;;;;;;;;;;;;;;;12.72;100.00;97298.69;18560725;32;20276;-58
2023/05/21 00:36:13;;;;;;;;;;;;;;;12.71;100.00;97294.38;18568197;31;19949;-58
2023/05/21 00:46:20;;;;;;;;;;;;;;;12.66;100.00;97289.00;18573186;32;19964;-58
2023/05/21 00:56:23;;;;;;;;;;;;;;;12.60;100.00;97288.28;18573038;32;20344;-58
2023/05/21 01:06:27;;;;;;;;;;;;;;;12.51;100.00;97288.13;18571927;32;20273;-58
2023/05/21 01:16:31;;;;;;;;;;;;;;;12.44;100.00;97287.66;18556762;32;19953;-58
2023/05/21 01:26:37;;;;;;;;;;;;;;;12.37;100.00;97288.03;18556729;32;19956;-57
2023/05/21 01:36:42;;;;;;;;;;;;;;;12.30;100.00;97275.94;18569975;32;19945;-57
2023/05/21 01:46:45;;;;;;;;;;;;;;;12.22;100.00;97274.66;18568899;32;19994;-57
2023/05/21 01:56:48;;;;;;;;;;;;;;;12.17;100.00;97269.34;18569222;32;19985;-57
2023/05/21 02:06:53;;;;;;;;;;;;;;;12.15;100.00;97260.66;18568288;32;19971;-57
2023/05/21 02:16:56;;;;;;;;;;;;;;;12.13;100.00;97254.75;18567636;32;20008;-57
2023/05/21 02:26:59;;;;;;;;;;;;;;;12.09;100.00;97259.94;18567022;31;19989;-57
2023/05/21 02:37:02;;;;;;;;;;;;;;;12.02;100.00;97254.84;18566473;32;19952;-58
2023/05/21 02:47:05;;;;;;;;;;;;;;;11.92;100.00;97264.97;18565643;32;19972;-57
2023/05/21 02:57:08;;;;;;;;;;;;;;;11.80;100.00;97254.53;18564602;32;20396;-58
2023/05/21 03:07:14;;;;;;;;;;;;;;;11.70;100.00;97263.56;18564612;32;20026;-57
2023/05/21 03:17:17;;;;;;;;;;;;;;;11.63;100.00;97265.81;18563988;32;19983;-57
2023/05/21 03:27:20;;;;;;;;;;;;;;;11.57;100.00;97269.69;18563169;32;19983;-57
2023/05/21 03:37:23;;;;;;;;;;;;;;;11.51;100.00;97271.63;18562638;32;19949;-58
2023/05/21 03:47:25;;;;;;;;;;;;;;;11.52;100.00;97278.66;18562120;32;20019;-57
2023/05/21 03:57:28;;;;;;;;;;;;;;;11.53;100.00;97274.88;18561825;32;19956;-58
2023/05/21 04:07:30;;;;;;;;;;;;;;;11.53;100.00;97283.00;18561403;32;19964;-57
2023/05/21 04:17:33;;;;;;;;;;;;;;;11.55;100.00;97294.31;18546536;32;19952;-58
2023/05/21 04:27:36;;;;;;;;;;;;;;;11.55;100.00;97316.00;18546411;32;19961;-58
2023/05/21 04:37:40;;;;;;;;;;;;;;;11.57;100.00;97319.22;18546284;32;20313;-58
2023/05/21 04:47:43;;;;;;;;;;;;;;;11.56;100.00;97333.06;18545771;32;19968;-58
2023/05/21 04:57:46;;;;;;;;;;;;;;;11.61;100.00;97339.22;18545546;32;19961;-58
2023/05/21 05:07:48;;;;;;;;;;;;;;;11.78;100.00;97338.78;18559749;32;20311;-58
2023/05/21 05:17:51;;;;;;;;;;;;;;;12.06;100.00;97347.22;18561265;32;19944;-58
2023/05/21 05:27:54;;;;;;;;;;;;;;;12.41;100.00;97337.06;18570780;32;19956;-58
2023/05/21 05:37:57;;;;;;;;;;;;;;;12.81;100.00;97332.22;18569970;32;20349;-58
2023/05/21 05:48:00;;;;;;;;;;;;;;;13.29;100.00;97338.56;18569087;32;20284;-58
2023/05/21 05:58:02;;;;;;;;;;;;;;;13.63;100.00;97337.50;18554629;32;19963;-58
2023/05/21 06:08:05;;;;;;;;;;;;;;;14.01;100.00;97329.22;18567953;32;20313;-57
2023/05/21 06:18:07;;;;;;;;;;;;;;;14.52;100.00;97332.84;18567636;32;20011;-58
2023/05/21 06:28:10;;;;;;;;;;;;;;;15.03;100.00;97328.22;18566304;32;20320;-57
2023/05/21 06:38:14;;;;;;;;;;;;;;;15.25;100.00;97330.97;18566635;32;20348;-57
2023/05/21 06:48:16;;;;;;;;;;;;;;;15.17;100.00;97336.34;18565599;32;20269;-57
2023/05/21 06:58:20;;;;;;;;;;;;;;;15.15;100.00;97324.97;18565210;32;20014;-57
2023/05/21 07:08:23;;;;;;;;;;;;;;;15.34;100.00;97327.50;18564293;32;19969;-57
2023/05/21 07:18:27;;;;;;;;;;;;;;;15.62;100.00;97341.00;18563729;32;19956;-57
2023/05/21 07:28:30;;;;;;;;;;;;;;;15.84;100.00;97345.62;18563220;32;19964;-57
2023/05/21 07:38:35;;;;;;;;;;;;;;;16.36;100.00;97343.16;18562620;32;19960;-58
2023/05/21 07:48:39;;;;;;;;;;;;;;;16.86;100.00;97339.25;18561822;32;19956;-58
2023/05/21 07:58:44;;;;;;;;;;;;;;;16.93;100.00;97336.88;18561683;31;19969;-58
2023/05/21 08:08:53;;;;;;;;;;;;;;;17.13;100.00;97344.75;18561561;32;20386;-58
2023/05/21 08:18:56;;;;;;;;;;;;;;;17.24;100.00;97340.59;18547387;32;19985;-58
2023/05/21 08:29:00;;;;;;;;;;;;;;;17.93;100.00;97334.22;18560602;32;19993;-58
2023/05/21 08:39:03;;;;;;;;;;;;;;;18.44;100.00;97339.03;18560451;32;20298;-57
2023/05/21 08:49:10;;;;;;;;;;;;;;;18.60;100.00;97339.28;18559856;32;19980;-57
2023/05/21 08:59:14;;;;;;;;;;;;;;;19.10;100.00;97329.44;18556009;32;20333;-58
2023/05/21 09:09:23;;;;;;;;;;;;;;;19.17;100.00;97335.22;18557709;32;20282;-58
2023/05/21 09:19:27;;;;;;;;;;;;;;;19.50;100.00;97350.06;18544303;32;19952;-58
2023/05/21 09:29:32;;;;;;;;;;;;;;;19.93;100.00;97349.69;18556840;32;19952;-58
2023/05/21 09:39:35;;;;;;;;;;;;;;;20.37;100.00;97345.62;18555877;31;19964;-58
2023/05/21 09:49:39;;;;;;;;;;;;;;;20.84;100.00;97339.69;18569266;31;20200;-58
2023/05/21 09:59:43;;;;;;;;;;;;;;;21.27;100.00;97342.91;18568478;32;20004;-57
2023/05/21 10:09:47;;;;;;;;;;;;;;;21.65;100.00;97331.44;18568218;32;19964;-58
2023/05/21 10:19:54;;;;;;;;;;;;;;;22.00;100.00;97324.50;18567617;32;19964;-58
2023/05/21 10:29:58;;;;;;;;;;;;;;;22.15;97.85;97320.94;18567143;32;19964;-58
2023/05/21 10:40:03;;;;;;;;;;;;;;;22.53;99.73;97310.47;18566025;31;20024;-58
2023/05/21 10:50:12;;;;;;;;;;;;;;;22.61;92.36;97303.16;18565845;32;20342;-57
2023/05/21 11:00:19;;;;;;;;;;;;;;;22.77;91.43;97295.66;18550715;32;19960;-56
2023/05/21 11:10:43;;;;;;;;;;;;;;;23.09;92.42;97300.25;18564477;32;19991;-57
2023/05/21 11:20:50;;;;;;;;;;;;;;;23.59;84.75;97297.75;18549229;32;19953;-57
2023/05/21 11:31:20;;;;;;;;;;;;;;;23.86;92.44;97298.62;18563244;32;19961;-57
2023/05/21 11:41:23;;;;;;;;;;;;;;;24.15;86.58;97299.16;18560196;32;19981;-57
2023/05/21 11:51:26;;;;;;;;;;;;;;;24.21;88.81;97294.91;18562238;32;19997;-57
2023/05/21 12:01:30;;;;;;;;;;;;;;;24.73;91.57;97289.81;18561549;32;20256;-57
2023/05/21 12:11:34;;;;;;;;;;;;;;;25.27;67.38;97287.75;18561297;32;19953;-57
2023/05/21 12:21:37;;;;;;;;;;;;;;;25.11;72.11;97281.63;18560959;31;19997;-57
2023/05/21 12:31:48;;;;;;;;;;;;;;;25.75;71.81;97283.53;18554607;31;20000;-57
2023/05/21 12:41:54;;;;;;;;;;;;;;;26.51;76.36;97282.25;18573211;31;19986;-58
2023/05/21 12:51:57;;;;;;;;;;;;;;;27.44;68.27;97281.19;18573121;32;19968;-58
2023/05/21 13:02:01;;;;;;;;;;;;;;;27.84;56.83;97302.31;18572250;32;19961;-57
2023/05/21 13:12:05;;;;;;;;;;;;;;;28.51;58.83;97307.53;18571394;32;19964;-58
2023/05/21 13:22:10;;;;;;;;;;;;;;;28.87;54.13;97293.59;18557147;32;19963;-58
2023/05/21 13:32:14;;;;;;;;;;;;;;;29.31;49.97;97281.13;18570471;32;19997;-58
2023/05/21 13:42:18;;;;;;;;;;;;;;;29.47;50.46;97271.53;18569250;31;19985;-57
2023/05/21 13:52:22;;;;;;;;;;;;;;;29.68;52.80;97276.19;18569636;32;19961;-57
2023/05/21 14:02:29;;;;;;;;;;;;;;;29.96;49.53;97264.09;18555348;32;19965;-58
2023/05/21 14:12:33;;;;;;;;;;;;;;;30.99;50.03;97263.53;18568013;32;20012;-58
2023/05/21 14:22:37;;;;;;;;;;;;;;;31.19;46.53;97248.97;18567360;31;19981;-58
2023/05/21 14:32:40;;;;;;;;;;;;;;;30.25;53.24;97244.34;18552785;32;19976;-57
2023/05/21 14:42:43;;;;;;;;;;;;;;;30.13;45.07;97234.47;18565956;31;19987;-57
2023/05/21 14:52:47;;;;;;;;;;;;;;;29.97;45.94;97226.66;18564994;32;20272;-57
2023/05/21 15:02:53;;;;;;;;;;;;;;;29.25;47.32;97229.88;18564749;32;19984;-56
2023/05/21 15:13:04;;;;;;;;;;;;;;;28.26;46.28;97224.13;18564434;31;20341;-57
2023/05/21 15:23:06;;;;;;;;;;;;;;;28.06;49.01;97228.13;18563721;32;20302;-57
2023/05/21 15:33:19;;;;;;;;;;;;;;;27.69;49.70;97232.03;18548945;32;19979;-57
2023/05/21 15:43:23;;;;;;;;;;;;;;;27.28;52.79;97237.09;18562515;31;19952;-57
2023/05/21 15:53:26;;;;;;;;;;;;;;;27.38;48.54;97241.87;18562434;32;19957;-57
2023/05/21 16:03:30;;;;;;;;;;;;;;;27.42;51.79;97230.81;18561885;32;19949;-56
2023/05/21 16:13:35;;;;;;;;;;;;;;;27.25;nan;97238.66;18561147;32;19964;-56
2023/05/21 16:23:39;;;;;;;;;;;;;;;26.97;46.98;97248.47;18561290;32;19983;-55
2023/05/21 16:33:42;;;;;;;;;;;;;;;27.03;49.29;97246.91;18560717;32;19976;-57
2023/05/21 16:43:46;;;;;;;;;;;;;;;27.25;57.79;97235.09;18545578;31;20361;-56
2023/05/21 16:53:49;;;;;;;;;;;;;;;27.77;52.30;97234.84;18546486;32;19968;-57
2023/05/21 17:03:54;;;;;;;;;;;;;;;27.39;48.30;97240.72;18544468;31;20292;-57
2023/05/21 17:13:58;;;;;;;;;;;;;;;26.18;47.06;97236.88;18561939;32;20075;-57
2023/05/21 17:24:00;;;;;;;;;;;;;;;25.47;49.41;97248.84;18556703;32;19944;-57
2023/05/21 17:34:04;;;;;;;;;;;;;;;24.84;50.98;97242.94;18570566;32;19974;-56
2023/05/21 17:44:07;;;;;;;;;;;;;;;24.31;60.18;97258.38;18555795;31;19971;-57
2023/05/21 17:54:12;;;;;;;;;;;;;;;23.74;74.85;97246.38;18569172;31;20328;-57
2023/05/21 18:04:15;;;;;;;;;;;;;;;23.12;90.93;97241.66;18554290;32;19953;-57
2023/05/21 18:14:20;;;;;;;;;;;;;;;22.50;99.34;97245.88;18541302;32;20351;-58
2023/05/21 18:24:27;;;;;;;;;;;;;;;21.88;100.00;97245.53;18567589;32;20306;-57
2023/05/21 18:34:35;;;;;;;;;;;;;;;21.32;100.00;97249.97;18554356;32;19952;-58
2023/05/21 18:44:38;;;;;;;;;;;;;;;20.88;100.00;97243.63;18566143;32;19953;-58
2023/05/21 18:54:42;;;;;;;;;;;;;;;20.51;100.00;97252.72;18565500;32;19968;-58
2023/05/21 19:04:47;;;;;;;;;;;;;;;20.10;100.00;97268.28;18565432;32;19952;-58
2023/05/21 19:14:52;;;;;;;;;;;;;;;19.76;100.00;97273.03;18564718;32;20001;-57
2023/05/21 19:24:59;;;;;;;;;;;;;;;19.43;100.00;97279.34;18564016;32;19952;-58
2023/05/21 19:35:06;;;;;;;;;;;;;;;19.18;100.00;97294.91;18563603;32;19957;-58
2023/05/21 19:45:12;;;;;;;;;;;;;;;18.90;100.00;97304.47;18562281;32;19987;-58
2023/05/21 19:55:18;;;;;;;;;;;;;;;18.57;100.00;97324.31;18562220;32;19984;-57
2023/05/21 20:05:21;;;;;;;;;;;;;;;18.27;100.00;97342.66;18561843;32;19960;-57
2023/05/21 20:15:25;;;;;;;;;;;;;;;17.93;100.00;97358.84;18561811;32;19975;-57
2023/05/21 20:25:28;;;;;;;;;;;;;;;17.58;100.00;97364.37;18546747;32;19976;-57
2023/05/21 20:35:31;;;;;;;;;;;;;;;17.26;100.00;97371.13;18561060;32;19948;-57
2023/05/21 20:45:35;;;;;;;;;;;;;;;16.97;100.00;97385.41;18545563;32;19953;-57
2023/05/21 20:55:43;;;;;;;;;;;;;;;16.66;100.00;97384.31;18571354;32;19944;-58
2023/05/21 21:05:46;;;;;;;;;;;;;;;16.39;100.00;97396.28;18572669;32;19956;-58
2023/05/21 21:15:49;;;;;;;;;;;;;;;16.14;100.00;97401.28;18571836;32;19949;-57
2023/05/21 21:25:52;;;;;;;;;;;;;;;15.91;100.00;97406.00;18557124;32;19961;-57
2023/05/21 21:35:56;;;;;;;;;;;;;;;15.70;100.00;97405.66;18557087;31;19953;-57
2023/05/21 21:45:58;;;;;;;;;;;;;;;15.51;100.00;97409.37;18569750;32;19990;-57
2023/05/21 21:56:02;;;;;;;;;;;;;;;15.42;100.00;97416.66;18569549;32;19968;-57
2023/05/21 22:06:05;;;;;;;;;;;;;;;15.35;100.00;97422.53;18568219;32;19952;-57
2023/05/21 22:16:07;;;;;;;;;;;;;;;15.24;100.00;97410.28;18554336;32;19964;-57
2023/05/21 22:26:10;;;;;;;;;;;;;;;15.06;100.00;97414.72;18567586;32;19977;-57
2023/05/21 22:36:12;;;;;;;;;;;;;;;14.94;100.00;97428.06;18552805;32;19956;-57
2023/05/21 22:46:15;;;;;;;;;;;;;;;14.82;100.00;97425.87;18566120;32;19984;-57
2023/05/21 22:56:18;;;;;;;;;;;;;;;14.70;100.00;97453.56;18551337;32;20250;-57
2023/05/21 23:06:21;;;;;;;;;;;;;;;14.56;100.00;97443.47;18564901;32;19987;-57
2023/05/21 23:16:24;;;;;;;;;;;;;;;14.46;100.00;97446.38;18550247;32;19960;-57
2023/05/21 23:26:27;;;;;;;;;;;;;;;14.43;100.00;97444.28;18563556;31;20001;-57
2023/05/21 23:36:30;;;;;;;;;;;;;;;14.29;100.00;97457.84;18563353;32;19991;-57
2023/05/21 23:46:33;;;;;;;;;;;;;;;14.20;100.00;97460.44;18562430;32;19968;-57
2023/05/21 23:56:36;;;;;;;;;;;;;;;14.03;100.00;97460.19;18562331;32;20012;-57
